Monday, August 20, 2018, 1:14 AM EDT
Back to Local

KHPN, White Plains Westchester

Location: Greenwich, NY, United States Lat: 41.067
Local Time: 1:14 AM EDT ( 5:14 GMT) Lon: -73.7
Time Zone: US/Eastern Elev: 439 ft

Show me the last for .
Show Decoded

2018-08-20 00:56 METAR KHPN 200456Z 06005KT 10SM OVC080 18/15 A3010 RMK AO2 SLP191 T01830150
                 402220183 $ =
2018-08-19 23:56 METAR KHPN 200356Z 05004KT 10SM OVC085 19/16 A3010 RMK AO2 SLP191 T01890161 $ =
2018-08-19 22:56 METAR KHPN 200256Z 05003KT 10SM SCT060 BKN085 19/17 A3010 RMK AO2 SLP188
                 T01940172 51015 $ =
2018-08-19 21:56 METAR KHPN 200156Z 03003KT 10SM SCT025 BKN040 BKN080 20/18 A3009 RMK AO2 SLP183
                 T02000183 $ =
2018-08-19 20:56 METAR KHPN 200056Z 04004KT 10SM SCT020 BKN050 BKN075 20/18 A3007 RMK AO2 SLP180
                 T02000183 $ =
2018-08-19 19:56 METAR KHPN 192356Z 03004KT 10SM SCT020 BKN039 BKN070 21/19 A3006 RMK AO2 SLP174
                 60012 T02060189 10222 20200 51013 $ =
2018-08-19 18:56 METAR KHPN 192256Z 05004KT 10SM FEW008 BKN055 21/19 A3004 RMK AO2 SLP170
                 T02110189 $ =
2018-08-19 17:56 METAR KHPN 192156Z 00000KT 10SM FEW008 BKN050 21/19 A3003 RMK AO2 RAE52 SLP165
                 P0001 T02110189 $ =
2018-08-19 16:56 METAR KHPN 192056Z 00000KT 7SM -RA FEW005 BKN048 21/19 A3002 RMK AO2 SLP161
                 P0005 60011 T02060189 53003 $ =
2018-08-19 15:56 METAR KHPN 191956Z 18004KT 5SM -RA BR SCT030 BKN040 21/19 A3001 RMK AO2 SLP158
                 P0005 T02060189 $ =
2018-08-19 14:56 METAR KHPN 191856Z 02003KT 10SM -RA SCT031 BKN043 22/17 A3000 RMK AO2 RAB20
                 SLP155 P0001 T02220172 $ =
2018-08-19 14:33 METAR KHPN 191833Z 08003KT 10SM -RA BKN031 22/17 A3000 RMK AO2 RAB20 P0001
                 T02170172 $ =
2018-08-19 13:56 METAR KHPN 191756Z 05003KT 10SM BKN027 22/16 A3001 RMK AO2 SLP157 T02170161
                 10217 20189 53003 $ =
2018-08-19 12:56 METAR KHPN 191656Z VRB05KT 10SM BKN025 OVC030 22/16 A3000 RMK AO2 SLP155
                 T02170161 $ =
2018-08-19 11:56 METAR KHPN 191556Z 08006KT 10SM BKN022 21/16 A3000 RMK AO2 SLP154 T02110161 $ =
2018-08-19 10:56 METAR KHPN 191456Z 05005KT 10SM BKN022 21/16 A3000 RMK AO2 SLP154 T02110161
                 53013 $ =
2018-08-19 09:56 METAR KHPN 191356Z 05010KT 10SM BKN019 BKN027 21/17 A2998 RMK AO2 SLP148
                 T02060167 $ =
2018-08-19 08:56 METAR KHPN 191256Z 05005KT 10SM BKN020 BKN029 19/17 A2997 RMK AO2 SLP144
                 T01940172 $ =
2018-08-19 07:56 METAR KHPN 191156Z 05004KT 10SM FEW019 BKN029 19/17 A2996 RMK AO2 SLP140 60005
                 70010 T01890167 10206 20189 53021 $ =
2018-08-19 06:56 METAR KHPN 191056Z 05007KT 10SM BKN009 BKN015 19/18 A2993 RMK AO2 RAE53 SLP131
                 P0003 T01890178 $ =
2018-08-19 06:32 METAR KHPN 191032Z 02008G14KT 1 1/2SM -RA BR SCT007 BKN015 19/18 A2992 RMK AO2
                 P0002 T01890183 $ =
2018-08-19 06:25 METAR KHPN 191025Z 03006KT 3SM -RA BR SCT007 BKN015 19/18 A2992 RMK AO2 P0001
                 T01890183 $ =
2018-08-19 05:56 METAR KHPN 190956Z 06005KT 5SM -RA BR OVC008 19/18 A2991 RMK AO2 CIG 004V010
                 SLP124 P0001 T01940183 $ =
2018-08-19 04:56 METAR KHPN 190856Z 06003KT 7SM -RA OVC012 19/18 A2990 RMK AO2 RAB23 SLP119 P0001
                 60001 T01940183 53011 $ =
2018-08-19 04:20 METAR KHPN 190820Z 03006KT 10SM BKN014 OVC020 20/18 A2989 RMK AO2 T02000178 $ =
2018-08-19 03:56 METAR KHPN 190756Z 03007KT 10SM FEW014 BKN019 OVC046 21/18 A2988 RMK AO2 SLP113
                 T02060178 $ =
2018-08-19 02:56 METAR KHPN 190656Z 02007KT 10SM SCT025 BKN040 20/18 A2988 RMK AO2 SLP110
                 T02000178 $ =
2018-08-19 01:56 METAR KHPN 190556Z 36007KT 10SM BKN026 21/18 A2987 RMK AO2 SLP107 60001
                 T02060178 10228 20200 55000 $ =

Support USWX by starting your Amazon purchase here.